Time;durP1;ratioP1;P1;durP2;ratioP2;P2;SDS_P1;SDS_P2;PMS_P1;PMS_P2;Temp;Humidity;BMP_temperature;BMP_pressure;BME280_temperature;BME280_humidity;BME280_pressure;Samples;Min_cycle;Max_cycle;Signal;HPM_P1;HPM_P2
2023/11/23 00:00:26;;;;;;;31.30;16.40;;;;;;;-128.00;-1.00;-1.00;105255;1256;1004153;-78
2023/11/23 00:03:13;;;;;;;25.60;13.80;;;;;;;-128.00;-1.00;-1.00;105439;1252;1047244;-78
2023/11/23 00:05:40;;;;;;;30.60;16.50;;;;;;;-128.00;-1.00;-1.00;105456;1252;1004629;-78
2023/11/23 00:08:08;;;;;;;28.00;14.60;;;;;;;-128.00;-1.00;-1.00;105416;1252;1004679;-78
2023/11/23 00:10:34;;;;;;;30.30;15.30;;;;;;;-128.00;-1.00;-1.00;105351;1253;1003669;-78
2023/11/23 00:13:01;;;;;;;30.70;14.40;;;;;;;-128.00;-1.00;-1.00;105355;1252;1004742;-78
2023/11/23 00:15:27;;;;;;;32.50;16.40;;;;;;;-128.00;-1.00;-1.00;105392;1252;1003868;-78
2023/11/23 00:17:54;;;;;;;27.40;14.30;;;;;;;-128.00;-1.00;-1.00;105400;1252;1003729;-78
2023/11/23 00:20:21;;;;;;;29.00;15.30;;;;;;;-128.00;-1.00;-1.00;105389;1253;1004139;-78
2023/11/23 00:22:47;;;;;;;36.00;16.50;;;;;;;-128.00;-1.00;-1.00;105399;1252;1004162;-78
2023/11/23 00:25:14;;;;;;;29.80;16.00;;;;;;;-128.00;-1.00;-1.00;105392;1252;1004776;-77
2023/11/23 00:27:40;;;;;;;30.50;15.00;;;;;;;-128.00;-1.00;-1.00;105416;1252;1003497;-78
2023/11/23 00:30:07;;;;;;;32.90;17.90;;;;;;;-128.00;-1.00;-1.00;105371;1252;1005820;-78
2023/11/23 00:32:34;;;;;;;33.60;16.70;;;;;;;-128.00;-1.00;-1.00;105411;1252;1005319;-78
2023/11/23 00:35:01;;;;;;;34.20;18.00;;;;;;;-128.00;-1.00;-1.00;105381;1252;1004553;-78
2023/11/23 00:37:28;;;;;;;34.50;17.30;;;;;;;-128.00;-1.00;-1.00;105366;1252;1004383;-78
2023/11/23 00:39:55;;;;;;;36.40;19.00;;;;;;;-128.00;-1.00;-1.00;105392;1252;1004336;-77
2023/11/23 00:42:21;;;;;;;27.60;17.20;;;;;;;-128.00;-1.00;-1.00;105396;1252;1003898;-78
2023/11/23 00:44:48;;;;;;;31.90;17.40;;;;;;;-128.00;-1.00;-1.00;105394;1252;1003905;-78
2023/11/23 00:47:15;;;;;;;27.90;14.40;;;;;;;-128.00;-1.00;-1.00;105402;1253;1004857;-78
2023/11/23 00:49:41;;;;;;;28.80;15.80;;;;;;;-128.00;-1.00;-1.00;105351;1253;1005067;-78
2023/11/23 00:52:08;;;;;;;28.30;15.20;;;;;;;-128.00;-1.00;-1.00;105368;1252;1004561;-77
2023/11/23 00:54:39;;;;;;;28.50;15.20;;;;;;;-128.00;-1.00;-1.00;105510;1252;1004673;-78
2023/11/23 00:57:06;;;;;;;35.00;17.60;;;;;;;-128.00;-1.00;-1.00;105473;1252;1057244;-78
2023/11/23 00:59:33;;;;;;;35.00;17.80;;;;;;;-128.00;-1.00;-1.00;105338;1252;1004058;-78
2023/11/23 01:02:03;;;;;;;41.20;24.90;;;;;;;-128.00;-1.00;-1.00;105454;1252;1003764;-78
2023/11/23 01:04:30;;;;;;;40.10;22.00;;;;;;;-128.00;-1.00;-1.00;105349;1253;1047265;-78
2023/11/23 01:06:56;;;;;;;53.30;26.20;;;;;;;-128.00;-1.00;-1.00;105415;1252;1004113;-78
2023/11/23 01:09:23;;;;;;;45.30;24.80;;;;;;;-128.00;-1.00;-1.00;105374;1252;1004190;-78
2023/11/23 01:11:51;;;;;;;43.40;22.50;;;;;;;-128.00;-1.00;-1.00;105410;1253;1003570;-78
2023/11/23 01:14:18;;;;;;;31.00;16.00;;;;;;;-128.00;-1.00;-1.00;105281;1252;1004238;-78
2023/11/23 01:16:45;;;;;;;36.90;22.90;;;;;;;-128.00;-1.00;-1.00;105364;1253;1004151;-77
2023/11/23 01:19:13;;;;;;;39.50;22.40;;;;;;;-128.00;-1.00;-1.00;105398;1252;1004063;-78
2023/11/23 01:21:39;;;;;;;36.00;18.40;;;;;;;-128.00;-1.00;-1.00;105377;1253;1005109;-78
2023/11/23 01:24:08;;;;;;;32.70;17.40;;;;;;;-128.00;-1.00;-1.00;105399;1253;1004152;-78
2023/11/23 01:26:34;;;;;;;30.10;16.30;;;;;;;-128.00;-1.00;-1.00;105371;1253;1046389;-78
2023/11/23 01:29:01;;;;;;;35.10;17.90;;;;;;;-128.00;-1.00;-1.00;105375;1252;1004041;-77
2023/11/23 01:31:29;;;;;;;34.80;18.90;;;;;;;-128.00;-1.00;-1.00;105423;1252;1003660;-78
2023/11/23 01:33:55;;;;;;;33.60;20.10;;;;;;;-128.00;-1.00;-1.00;105430;1253;1004117;-78
2023/11/23 01:36:22;;;;;;;43.40;21.90;;;;;;;-128.00;-1.00;-1.00;105327;1253;1004255;-78
2023/11/23 01:38:49;;;;;;;42.10;22.20;;;;;;;-128.00;-1.00;-1.00;105379;1256;1003732;-78
2023/11/23 01:41:15;;;;;;;62.90;32.60;;;;;;;-128.00;-1.00;-1.00;105451;1253;1004621;-78
2023/11/23 01:43:45;;;;;;;51.40;29.40;;;;;;;-128.00;-1.00;-1.00;105352;1253;1004472;-78
2023/11/23 01:46:12;;;;;;;52.50;30.40;;;;;;;-128.00;-1.00;-1.00;105476;1252;1057730;-78
2023/11/23 01:48:40;;;;;;;47.60;26.80;;;;;;;-128.00;-1.00;-1.00;105317;1252;1003772;-78
2023/11/23 01:51:08;;;;;;;44.50;24.40;;;;;;;-128.00;-1.00;-1.00;105360;1253;1003827;-78
2023/11/23 01:53:35;;;;;;;37.80;21.70;;;;;;;-128.00;-1.00;-1.00;105385;1253;1003406;-78
2023/11/23 01:56:02;;;;;;;46.10;23.50;;;;;;;-128.00;-1.00;-1.00;105390;1252;1005064;-78
2023/11/23 01:58:29;;;;;;;38.90;22.40;;;;;;;-128.00;-1.00;-1.00;105334;1256;1004038;-78
2023/11/23 02:00:56;;;;;;;37.70;18.40;;;;;;;-128.00;-1.00;-1.00;105341;1253;1004182;-78
2023/11/23 02:03:22;;;;;;;41.20;21.60;;;;;;;-128.00;-1.00;-1.00;105375;1253;1003543;-78
2023/11/23 02:05:49;;;;;;;35.30;19.70;;;;;;;-128.00;-1.00;-1.00;105392;1253;1004678;-78
2023/11/23 02:08:16;;;;;;;33.50;18.30;;;;;;;-128.00;-1.00;-1.00;105373;1252;1004166;-78
2023/11/23 02:10:42;;;;;;;39.30;19.80;;;;;;;-128.00;-1.00;-1.00;105384;1253;1004694;-78
2023/11/23 02:13:09;;;;;;;44.50;22.20;;;;;;;-128.00;-1.00;-1.00;105289;1253;1003381;-78
2023/11/23 02:15:36;;;;;;;40.40;19.70;;;;;;;-128.00;-1.00;-1.00;105389;1253;1004445;-77
2023/11/23 02:18:03;;;;;;;44.40;22.40;;;;;;;-128.00;-1.00;-1.00;105385;1253;1004868;-78
2023/11/23 02:20:31;;;;;;;48.40;21.80;;;;;;;-128.00;-1.00;-1.00;105498;1253;1004745;-78
2023/11/23 02:22:59;;;;;;;44.00;22.80;;;;;;;-128.00;-1.00;-1.00;105336;1253;1003896;-77
2023/11/23 02:25:27;;;;;;;47.50;21.40;;;;;;;-128.00;-1.00;-1.00;105350;1253;1060533;-78
2023/11/23 02:27:53;;;;;;;61.90;26.60;;;;;;;-128.00;-1.00;-1.00;105356;1253;1003985;-79
2023/11/23 02:30:20;;;;;;;52.80;24.10;;;;;;;-128.00;-1.00;-1.00;105294;1252;1004065;-78
2023/11/23 02:32:48;;;;;;;56.30;27.80;;;;;;;-128.00;-1.00;-1.00;105278;1252;1004142;-78
2023/11/23 02:35:14;;;;;;;49.70;24.00;;;;;;;-128.00;-1.00;-1.00;105314;1252;1004414;-78
2023/11/23 02:37:41;;;;;;;41.50;22.40;;;;;;;-128.00;-1.00;-1.00;105382;1252;1004437;-77
2023/11/23 02:40:10;;;;;;;45.90;22.00;;;;;;;-128.00;-1.00;-1.00;105387;1253;1004093;-77
2023/11/23 02:42:38;;;;;;;54.20;25.70;;;;;;;-128.00;-1.00;-1.00;105509;1253;1046463;-78
2023/11/23 02:45:07;;;;;;;29.60;16.10;;;;;;;-128.00;-1.00;-1.00;105378;1253;1003874;-78
2023/11/23 02:47:34;;;;;;;47.00;23.30;;;;;;;-128.00;-1.00;-1.00;105314;1253;1003729;-78
2023/11/23 02:50:01;;;;;;;38.60;19.30;;;;;;;-128.00;-1.00;-1.00;105349;1252;1004244;-78
2023/11/23 02:52:28;;;;;;;38.40;19.00;;;;;;;-128.00;-1.00;-1.00;105350;1253;1004535;-78
2023/11/23 02:54:54;;;;;;;37.00;18.70;;;;;;;-128.00;-1.00;-1.00;105400;1253;1004250;-78
2023/11/23 02:57:21;;;;;;;35.50;18.60;;;;;;;-128.00;-1.00;-1.00;105321;1253;1005155;-77
2023/11/23 02:59:51;;;;;;;32.30;17.60;;;;;;;-128.00;-1.00;-1.00;105365;1253;1004382;-78
2023/11/23 03:02:17;;;;;;;38.10;17.10;;;;;;;-128.00;-1.00;-1.00;105315;1253;1059711;-78
2023/11/23 03:04:44;;;;;;;32.80;16.70;;;;;;;-128.00;-1.00;-1.00;105341;1253;1005145;-78
2023/11/23 03:07:10;;;;;;;32.80;18.10;;;;;;;-128.00;-1.00;-1.00;105283;1253;1004913;-78
2023/11/23 03:09:37;;;;;;;29.10;15.40;;;;;;;-128.00;-1.00;-1.00;105386;1252;1004499;-77
2023/11/23 03:12:04;;;;;;;28.40;15.90;;;;;;;-128.00;-1.00;-1.00;105401;1252;1004975;-78
2023/11/23 03:14:32;;;;;;;30.50;15.00;;;;;;;-128.00;-1.00;-1.00;105352;1252;1005020;-77
2023/11/23 03:16:59;;;;;;;23.90;14.30;;;;;;;-128.00;-1.00;-1.00;105397;1253;1046536;-77
2023/11/23 03:19:26;;;;;;;27.10;14.90;;;;;;;-128.00;-1.00;-1.00;105385;1253;1004929;-78
2023/11/23 03:21:52;;;;;;;34.00;16.00;;;;;;;-128.00;-1.00;-1.00;105632;1253;1004254;-78
2023/11/23 03:24:19;;;;;;;29.80;12.90;;;;;;;-128.00;-1.00;-1.00;105321;1253;1003851;-77
2023/11/23 03:26:46;;;;;;;30.50;14.50;;;;;;;-128.00;-1.00;-1.00;105341;1253;1003801;-78
2023/11/23 03:29:12;;;;;;;27.10;14.40;;;;;;;-128.00;-1.00;-1.00;105470;1253;1004623;-78
2023/11/23 03:31:39;;;;;;;28.10;14.00;;;;;;;-128.00;-1.00;-1.00;105376;1253;1004755;-78
2023/11/23 03:34:05;;;;;;;26.20;13.70;;;;;;;-128.00;-1.00;-1.00;105422;1253;1004415;-78
2023/11/23 03:36:32;;;;;;;23.10;12.10;;;;;;;-128.00;-1.00;-1.00;105459;1252;1004120;-78
2023/11/23 03:38:59;;;;;;;29.20;12.50;;;;;;;-128.00;-1.00;-1.00;105397;1252;1003635;-78
2023/11/23 03:41:25;;;;;;;27.30;13.40;;;;;;;-128.00;-1.00;-1.00;105383;1253;1003520;-78
2023/11/23 03:43:52;;;;;;;24.50;12.00;;;;;;;-128.00;-1.00;-1.00;105387;1253;1003870;-77
2023/11/23 03:46:19;;;;;;;22.00;11.20;;;;;;;-128.00;-1.00;-1.00;105439;1253;1004310;-78
2023/11/23 03:48:46;;;;;;;26.60;13.40;;;;;;;-128.00;-1.00;-1.00;105422;1253;1003893;-78
2023/11/23 03:51:14;;;;;;;22.60;14.20;;;;;;;-128.00;-1.00;-1.00;105370;1253;1004875;-78
2023/11/23 03:53:41;;;;;;;30.60;14.40;;;;;;;-128.00;-1.00;-1.00;105403;1253;1004537;-77
2023/11/23 03:56:08;;;;;;;26.10;12.10;;;;;;;-128.00;-1.00;-1.00;105393;1253;1004273;-78
2023/11/23 03:58:34;;;;;;;27.60;11.80;;;;;;;-128.00;-1.00;-1.00;105329;1253;1004266;-78
2023/11/23 04:01:04;;;;;;;22.70;11.50;;;;;;;-128.00;-1.00;-1.00;105361;1253;1004050;-78
2023/11/23 04:03:30;;;;;;;30.60;13.50;;;;;;;-128.00;-1.00;-1.00;105350;1253;1058602;-77
2023/11/23 04:05:58;;;;;;;26.40;12.70;;;;;;;-128.00;-1.00;-1.00;105380;1253;1004426;-78
2023/11/23 04:08:25;;;;;;;28.70;15.50;;;;;;;-128.00;-1.00;-1.00;105396;1252;1005101;-78
2023/11/23 04:10:51;;;;;;;27.60;14.80;;;;;;;-128.00;-1.00;-1.00;105403;1253;1004684;-78
2023/11/23 04:13:18;;;;;;;30.10;15.20;;;;;;;-128.00;-1.00;-1.00;105384;1253;1004170;-78
2023/11/23 04:15:45;;;;;;;27.10;13.40;;;;;;;-128.00;-1.00;-1.00;105397;1253;1004851;-78
2023/11/23 04:18:12;;;;;;;28.40;14.10;;;;;;;-128.00;-1.00;-1.00;105383;1254;1004801;-78
2023/11/23 04:20:38;;;;;;;27.50;14.30;;;;;;;-128.00;-1.00;-1.00;105398;1252;1004939;-78
2023/11/23 04:23:05;;;;;;;40.50;24.60;;;;;;;-128.00;-1.00;-1.00;105387;1253;1004455;-78
2023/11/23 04:25:34;;;;;;;33.60;19.10;;;;;;;-128.00;-1.00;-1.00;105410;1253;1004578;-78
2023/11/23 04:28:00;;;;;;;14.10;6.90;;;;;;;-128.00;-1.00;-1.00;105519;1253;1003710;-78
2023/11/23 04:30:27;;;;;;;34.50;15.70;;;;;;;-128.00;-1.00;-1.00;105406;1253;1004220;-78
2023/11/23 04:32:54;;;;;;;27.40;14.50;;;;;;;-128.00;-1.00;-1.00;105409;1253;1004370;-78
2023/11/23 04:35:20;;;;;;;29.60;14.40;;;;;;;-128.00;-1.00;-1.00;105394;1252;1004446;-77
2023/11/23 04:37:48;;;;;;;32.00;19.30;;;;;;;-128.00;-1.00;-1.00;105297;1253;1004744;-78
2023/11/23 04:40:14;;;;;;;34.40;14.70;;;;;;;-128.00;-1.00;-1.00;105334;1253;1006084;-78
2023/11/23 04:42:43;;;;;;;27.90;14.50;;;;;;;-128.00;-1.00;-1.00;105396;1253;1004477;-78
2023/11/23 04:45:10;;;;;;;35.10;14.80;;;;;;;-128.00;-1.00;-1.00;105411;1253;1047044;-78
2023/11/23 04:47:37;;;;;;;47.90;21.10;;;;;;;-128.00;-1.00;-1.00;105404;1253;1004009;-78
2023/11/23 04:50:04;;;;;;;33.10;14.80;;;;;;;-128.00;-1.00;-1.00;105363;1253;1004381;-78
2023/11/23 04:52:31;;;;;;;26.50;12.10;;;;;;;-128.00;-1.00;-1.00;105333;1253;1004215;-78
2023/11/23 04:54:57;;;;;;;17.80;10.40;;;;;;;-128.00;-1.00;-1.00;105376;1253;1004876;-77
2023/11/23 04:57:24;;;;;;;26.50;13.10;;;;;;;-128.00;-1.00;-1.00;105428;1253;1004562;-78
2023/11/23 04:59:50;;;;;;;22.80;13.30;;;;;;;-128.00;-1.00;-1.00;105337;1253;1005108;-78
2023/11/23 05:02:17;;;;;;;18.60;8.10;;;;;;;-128.00;-1.00;-1.00;105408;1252;1003808;-78
2023/11/23 05:04:44;;;;;;;18.10;11.20;;;;;;;-128.00;-1.00;-1.00;105356;1253;1003954;-78
2023/11/23 05:07:10;;;;;;;26.30;11.90;;;;;;;-128.00;-1.00;-1.00;105359;1253;1004118;-78
2023/11/23 05:09:37;;;;;;;22.10;12.10;;;;;;;-128.00;-1.00;-1.00;105364;1253;1004610;-78
2023/11/23 05:12:04;;;;;;;19.20;11.30;;;;;;;-128.00;-1.00;-1.00;105369;1253;1004437;-78
2023/11/23 05:14:31;;;;;;;19.70;9.10;;;;;;;-128.00;-1.00;-1.00;105420;1253;1004218;-78
2023/11/23 05:16:57;;;;;;;19.00;9.50;;;;;;;-128.00;-1.00;-1.00;105373;1253;1003901;-78
2023/11/23 05:19:24;;;;;;;19.80;10.50;;;;;;;-128.00;-1.00;-1.00;105362;1253;1004072;-78
2023/11/23 05:21:50;;;;;;;18.40;10.10;;;;;;;-128.00;-1.00;-1.00;105380;1253;1004065;-78
2023/11/23 05:24:17;;;;;;;22.90;11.00;;;;;;;-128.00;-1.00;-1.00;105354;1253;1004901;-78
2023/11/23 05:26:44;;;;;;;21.00;10.70;;;;;;;-128.00;-1.00;-1.00;105390;1253;1004263;-78
2023/11/23 05:29:11;;;;;;;20.20;11.70;;;;;;;-128.00;-1.00;-1.00;105383;1253;1004491;-78
2023/11/23 05:31:37;;;;;;;19.90;11.80;;;;;;;-128.00;-1.00;-1.00;105367;1253;1004322;-77
2023/11/23 05:34:05;;;;;;;15.60;9.80;;;;;;;-128.00;-1.00;-1.00;105405;1252;1004681;-78
2023/11/23 05:36:32;;;;;;;21.50;11.40;;;;;;;-128.00;-1.00;-1.00;105399;1253;1004656;-77
2023/11/23 05:38:58;;;;;;;24.80;15.50;;;;;;;-128.00;-1.00;-1.00;105370;1253;1003944;-78
2023/11/23 05:41:25;;;;;;;15.20;9.20;;;;;;;-128.00;-1.00;-1.00;105340;1253;1004082;-78
2023/11/23 05:43:51;;;;;;;23.70;11.00;;;;;;;-128.00;-1.00;-1.00;105345;1253;1004916;-78
2023/11/23 05:46:18;;;;;;;16.90;9.40;;;;;;;-128.00;-1.00;-1.00;105394;1251;1003782;-78
2023/11/23 05:48:44;;;;;;;20.30;10.40;;;;;;;-128.00;-1.00;-1.00;105273;1253;1004993;-78
2023/11/23 05:51:11;;;;;;;19.40;10.90;;;;;;;-128.00;-1.00;-1.00;105356;1253;1005021;-79
2023/11/23 05:53:38;;;;;;;22.00;11.50;;;;;;;-128.00;-1.00;-1.00;105295;1253;1005332;-78
2023/11/23 05:56:05;;;;;;;22.00;12.80;;;;;;;-128.00;-1.00;-1.00;105303;1253;1003445;-78
2023/11/23 05:58:31;;;;;;;18.50;10.70;;;;;;;-128.00;-1.00;-1.00;105332;1253;1004568;-77
2023/11/23 06:00:59;;;;;;;22.90;11.30;;;;;;;-128.00;-1.00;-1.00;105326;1254;1004045;-78
2023/11/23 06:03:26;;;;;;;23.40;13.70;;;;;;;-128.00;-1.00;-1.00;105409;1253;1005097;-78
2023/11/23 06:05:52;;;;;;;24.20;12.70;;;;;;;-128.00;-1.00;-1.00;105490;1254;1004665;-78
2023/11/23 06:08:19;;;;;;;19.90;11.40;;;;;;;-128.00;-1.00;-1.00;105419;1252;1004344;-79
2023/11/23 06:10:46;;;;;;;25.90;12.30;;;;;;;-128.00;-1.00;-1.00;105575;1253;1004441;-78
2023/11/23 06:13:14;;;;;;;27.00;12.70;;;;;;;-128.00;-1.00;-1.00;105476;1253;1005068;-77
2023/11/23 06:15:41;;;;;;;19.40;9.90;;;;;;;-128.00;-1.00;-1.00;105402;1253;1004791;-78
2023/11/23 06:18:07;;;;;;;38.10;16.80;;;;;;;-128.00;-1.00;-1.00;105463;1253;1004850;-78
2023/11/23 06:20:34;;;;;;;53.20;23.30;;;;;;;-128.00;-1.00;-1.00;105350;1253;1004556;-78
2023/11/23 06:23:01;;;;;;;35.30;18.40;;;;;;;-128.00;-1.00;-1.00;105383;1253;1004849;-78
2023/11/23 06:25:27;;;;;;;35.00;15.30;;;;;;;-128.00;-1.00;-1.00;105356;1253;1006095;-78
2023/11/23 06:27:54;;;;;;;38.50;18.50;;;;;;;-128.00;-1.00;-1.00;105380;1253;1005058;-79
2023/11/23 06:30:20;;;;;;;27.40;14.20;;;;;;;-128.00;-1.00;-1.00;105327;1254;1003417;-78
2023/11/23 06:32:47;;;;;;;38.00;16.70;;;;;;;-128.00;-1.00;-1.00;105223;1251;1003866;-78
2023/11/23 06:35:14;;;;;;;32.80;16.40;;;;;;;-128.00;-1.00;-1.00;105421;1251;1004934;-78
2023/11/23 06:37:41;;;;;;;26.20;12.70;;;;;;;-128.00;-1.00;-1.00;105368;1253;1003943;-78
2023/11/23 06:40:08;;;;;;;13.50;7.20;;;;;;;-128.00;-1.00;-1.00;105339;1253;1004190;-79
2023/11/23 06:42:36;;;;;;;24.60;12.30;;;;;;;-128.00;-1.00;-1.00;105353;1253;1003979;-78
2023/11/23 06:45:03;;;;;;;16.00;7.80;;;;;;;-128.00;-1.00;-1.00;105356;1253;1004339;-78
2023/11/23 06:47:29;;;;;;;21.80;10.40;;;;;;;-128.00;-1.00;-1.00;105410;1255;1004772;-78
2023/11/23 06:49:56;;;;;;;19.90;10.70;;;;;;;-128.00;-1.00;-1.00;105521;1251;1004164;-78
2023/11/23 06:52:22;;;;;;;23.10;12.70;;;;;;;-128.00;-1.00;-1.00;105324;1253;1003964;-78
2023/11/23 06:54:49;;;;;;;18.30;10.70;;;;;;;-128.00;-1.00;-1.00;105324;1253;1004379;-78
2023/11/23 06:57:16;;;;;;;30.50;15.50;;;;;;;-128.00;-1.00;-1.00;105342;1253;1003466;-78
2023/11/23 06:59:44;;;;;;;19.50;11.00;;;;;;;-128.00;-1.00;-1.00;105402;1253;1003954;-78
2023/11/23 07:02:11;;;;;;;16.20;9.30;;;;;;;-128.00;-1.00;-1.00;105656;1251;1004447;-78
2023/11/23 07:04:38;;;;;;;19.30;9.50;;;;;;;-128.00;-1.00;-1.00;105510;1256;1004156;-78
2023/11/23 07:07:06;;;;;;;22.70;11.20;;;;;;;-128.00;-1.00;-1.00;105232;1253;1003824;-78
2023/11/23 07:09:33;;;;;;;18.60;10.50;;;;;;;-128.00;-1.00;-1.00;105294;1253;1004566;-78
2023/11/23 07:12:00;;;;;;;14.40;6.00;;;;;;;-128.00;-1.00;-1.00;105373;1253;1004704;-78
2023/11/23 07:14:26;;;;;;;18.20;10.10;;;;;;;-128.00;-1.00;-1.00;105439;1252;1004267;-78
2023/11/23 07:16:54;;;;;;;20.30;9.80;;;;;;;-128.00;-1.00;-1.00;105357;1253;1003895;-77
2023/11/23 07:19:22;;;;;;;16.60;9.50;;;;;;;-128.00;-1.00;-1.00;105350;1253;1004502;-78
2023/11/23 07:21:49;;;;;;;20.60;8.50;;;;;;;-128.00;-1.00;-1.00;105397;1253;1003777;-78
2023/11/23 07:24:16;;;;;;;12.30;6.30;;;;;;;-128.00;-1.00;-1.00;105325;1253;1003374;-78
2023/11/23 07:26:43;;;;;;;15.80;8.60;;;;;;;-128.00;-1.00;-1.00;105388;1252;1004353;-78
2023/11/23 07:29:09;;;;;;;14.70;8.30;;;;;;;-128.00;-1.00;-1.00;105348;1253;1004668;-78
2023/11/23 07:31:37;;;;;;;14.00;8.70;;;;;;;-128.00;-1.00;-1.00;105361;1253;1004610;-78
2023/11/23 07:34:04;;;;;;;12.00;5.30;;;;;;;-128.00;-1.00;-1.00;105389;1255;1003661;-78
2023/11/23 07:36:32;;;;;;;14.90;7.90;;;;;;;-128.00;-1.00;-1.00;105357;1253;1004645;-78
2023/11/23 07:38:59;;;;;;;12.50;7.10;;;;;;;-128.00;-1.00;-1.00;105384;1253;1004190;-78
2023/11/23 07:41:26;;;;;;;13.80;6.10;;;;;;;-128.00;-1.00;-1.00;105316;1256;1004191;-79
2023/11/23 07:43:55;;;;;;;14.30;8.00;;;;;;;-128.00;-1.00;-1.00;105292;1253;1004511;-78
2023/11/23 07:46:21;;;;;;;12.90;7.80;;;;;;;-128.00;-1.00;-1.00;105497;1253;1046331;-78
2023/11/23 07:48:52;;;;;;;16.30;8.30;;;;;;;-128.00;-1.00;-1.00;105310;1253;1004501;-78
2023/11/23 07:51:19;;;;;;;12.00;7.60;;;;;;;-128.00;-1.00;-1.00;105280;1251;1061253;-78
2023/11/23 07:53:45;;;;;;;17.80;8.40;;;;;;;-128.00;-1.00;-1.00;105498;1251;1005015;-78
2023/11/23 07:56:14;;;;;;;16.80;8.70;;;;;;;-128.00;-1.00;-1.00;105516;1256;1004310;-78
2023/11/23 07:58:42;;;;;;;16.00;8.20;;;;;;;-128.00;-1.00;-1.00;105325;1255;1003633;-78
2023/11/23 08:01:09;;;;;;;17.00;9.90;;;;;;;-128.00;-1.00;-1.00;105274;1253;1004492;-78
2023/11/23 08:03:35;;;;;;;14.90;6.90;;;;;;;-128.00;-1.00;-1.00;105306;1252;1003308;-78
2023/11/23 08:06:02;;;;;;;22.10;12.40;;;;;;;-128.00;-1.00;-1.00;105435;1251;1004293;-78
2023/11/23 08:08:29;;;;;;;16.10;9.80;;;;;;;-128.00;-1.00;-1.00;105363;1255;1004887;-78
2023/11/23 08:10:55;;;;;;;22.00;11.70;;;;;;;-128.00;-1.00;-1.00;105373;1251;1004307;-78
2023/11/23 08:13:22;;;;;;;24.90;12.30;;;;;;;-128.00;-1.00;-1.00;105382;1256;1004566;-78
2023/11/23 08:15:48;;;;;;;17.80;9.90;;;;;;;-128.00;-1.00;-1.00;105377;1254;1004691;-78
2023/11/23 08:18:15;;;;;;;23.90;11.90;;;;;;;-128.00;-1.00;-1.00;105440;1251;1004357;-78
2023/11/23 08:20:42;;;;;;;16.00;8.60;;;;;;;-128.00;-1.00;-1.00;105300;1254;1004581;-78
2023/11/23 08:23:12;;;;;;;17.30;7.50;;;;;;;-128.00;-1.00;-1.00;105335;1254;1005526;-78
2023/11/23 08:25:39;;;;;;;20.70;9.30;;;;;;;-128.00;-1.00;-1.00;105306;1254;1046877;-78
2023/11/23 08:28:06;;;;;;;19.40;10.00;;;;;;;-128.00;-1.00;-1.00;105321;1254;1004575;-78
2023/11/23 08:30:32;;;;;;;20.80;9.20;;;;;;;-128.00;-1.00;-1.00;105327;1253;1004761;-78
2023/11/23 08:32:59;;;;;;;19.30;10.10;;;;;;;-128.00;-1.00;-1.00;105328;1254;1004355;-78
2023/11/23 08:35:26;;;;;;;21.80;12.50;;;;;;;-128.00;-1.00;-1.00;105352;1253;1004033;-78
2023/11/23 08:37:54;;;;;;;17.20;8.80;;;;;;;-128.00;-1.00;-1.00;105438;1256;1004509;-79
2023/11/23 08:40:24;;;;;;;15.40;8.80;;;;;;;-128.00;-1.00;-1.00;105412;1254;1061144;-78
2023/11/23 08:42:50;;;;;;;15.10;7.90;;;;;;;-128.00;-1.00;-1.00;105330;1256;1058943;-78
2023/11/23 08:45:17;;;;;;;15.40;9.20;;;;;;;-128.00;-1.00;-1.00;105306;1253;1004120;-78
2023/11/23 08:47:43;;;;;;;16.10;8.50;;;;;;;-128.00;-1.00;-1.00;105343;1254;1005433;-79
2023/11/23 08:50:13;;;;;;;18.10;9.60;;;;;;;-128.00;-1.00;-1.00;105554;1251;1004699;-78
2023/11/23 08:52:44;;;;;;;17.10;8.90;;;;;;;-128.00;-1.00;-1.00;105427;1254;1061633;-78
2023/11/23 08:55:12;;;;;;;23.00;11.00;;;;;;;-128.00;-1.00;-1.00;105259;1253;1058395;-78
2023/11/23 08:57:40;;;;;;;25.10;12.30;;;;;;;-128.00;-1.00;-1.00;105402;1253;1003732;-78
2023/11/23 09:00:11;;;;;;;21.00;11.40;;;;;;;-128.00;-1.00;-1.00;105365;1254;1004244;-78
2023/11/23 09:02:40;;;;;;;47.50;23.50;;;;;;;-128.00;-1.00;-1.00;105365;1254;1046711;-78
2023/11/23 09:05:10;;;;;;;24.70;13.50;;;;;;;-128.00;-1.00;-1.00;105405;1254;1061798;-78
2023/11/23 09:07:37;;;;;;;16.60;9.50;;;;;;;-128.00;-1.00;-1.00;105302;1256;1058085;-78
2023/11/23 09:10:05;;;;;;;24.80;11.80;;;;;;;-128.00;-1.00;-1.00;105291;1253;1004044;-78
2023/11/23 09:12:33;;;;;;;28.10;13.80;;;;;;;-128.00;-1.00;-1.00;105346;1253;1003441;-78
2023/11/23 09:14:59;;;;;;;27.60;13.30;;;;;;;-128.00;-1.00;-1.00;105342;1253;1004260;-78
2023/11/23 09:17:30;;;;;;;18.50;10.70;;;;;;;-128.00;-1.00;-1.00;105352;1254;1004641;-78
2023/11/23 09:19:57;;;;;;;26.40;14.40;;;;;;;-128.00;-1.00;-1.00;105559;1254;1057569;-79
2023/11/23 09:22:24;;;;;;;22.00;13.70;;;;;;;-128.00;-1.00;-1.00;105331;1254;1004782;-78
2023/11/23 09:24:51;;;;;;;17.80;8.70;;;;;;;-128.00;-1.00;-1.00;105341;1252;1004421;-78
2023/11/23 09:27:18;;;;;;;31.50;10.20;;;;;;;-128.00;-1.00;-1.00;105452;1253;1004079;-78
2023/11/23 09:29:45;;;;;;;26.80;13.90;;;;;;;-128.00;-1.00;-1.00;105294;1254;1004243;-78
2023/11/23 09:32:12;;;;;;;21.70;11.90;;;;;;;-128.00;-1.00;-1.00;105329;1253;1005320;-78
2023/11/23 09:34:40;;;;;;;44.30;27.60;;;;;;;-128.00;-1.00;-1.00;105256;1254;1004578;-78
2023/11/23 09:37:07;;;;;;;48.70;22.60;;;;;;;-128.00;-1.00;-1.00;105320;1253;1004480;-78
2023/11/23 09:39:37;;;;;;;21.10;10.60;;;;;;;-128.00;-1.00;-1.00;105340;1251;1004619;-80
2023/11/23 09:42:04;;;;;;;24.90;12.20;;;;;;;-128.00;-1.00;-1.00;105347;1254;1062704;-79
2023/11/23 09:44:30;;;;;;;22.60;11.90;;;;;;;-128.00;-1.00;-1.00;105211;1255;1004646;-80
2023/11/23 09:46:57;;;;;;;14.90;6.90;;;;;;;-128.00;-1.00;-1.00;105201;1254;1004482;-79
2023/11/23 09:49:24;;;;;;;19.90;9.90;;;;;;;-128.00;-1.00;-1.00;105381;1253;1004629;-79
2023/11/23 09:51:51;;;;;;;20.70;9.70;;;;;;;-128.00;-1.00;-1.00;105414;1254;1005087;-79
2023/11/23 09:54:19;;;;;;;24.00;11.00;;;;;;;-128.00;-1.00;-1.00;105546;1254;1004463;-79
2023/11/23 09:56:47;;;;;;;17.20;9.40;;;;;;;-128.00;-1.00;-1.00;105378;1253;1003440;-79
2023/11/23 09:59:13;;;;;;;27.20;14.30;;;;;;;-128.00;-1.00;-1.00;105336;1254;1004432;-79
2023/11/23 10:01:43;;;;;;;33.40;14.80;;;;;;;-128.00;-1.00;-1.00;105409;1251;1004073;-79
2023/11/23 10:04:11;;;;;;;24.90;14.20;;;;;;;-128.00;-1.00;-1.00;105279;1254;1048541;-79
2023/11/23 10:06:37;;;;;;;19.90;10.50;;;;;;;-128.00;-1.00;-1.00;105367;1251;1003578;-79
2023/11/23 10:09:06;;;;;;;18.70;10.60;;;;;;;-128.00;-1.00;-1.00;105347;1254;1004399;-79
2023/11/23 10:11:33;;;;;;;17.70;9.20;;;;;;;-128.00;-1.00;-1.00;105390;1251;1059511;-79
2023/11/23 10:13:59;;;;;;;38.70;19.60;;;;;;;-128.00;-1.00;-1.00;105241;1254;1004445;-79
2023/11/23 10:16:26;;;;;;;18.40;11.10;;;;;;;-128.00;-1.00;-1.00;105319;1254;1003785;-79
2023/11/23 10:18:53;;;;;;;17.60;9.70;;;;;;;-128.00;-1.00;-1.00;105350;1253;1004833;-79
2023/11/23 10:21:20;;;;;;;22.10;12.70;;;;;;;-128.00;-1.00;-1.00;105402;1251;1004006;-79
2023/11/23 10:23:47;;;;;;;13.40;8.60;;;;;;;-128.00;-1.00;-1.00;105310;1251;1003535;-79
2023/11/23 10:26:14;;;;;;;17.50;9.40;;;;;;;-128.00;-1.00;-1.00;105395;1254;1003830;-79
2023/11/23 10:28:41;;;;;;;15.00;9.30;;;;;;;-128.00;-1.00;-1.00;105333;1253;1005436;-79
2023/11/23 10:31:08;;;;;;;17.30;8.00;;;;;;;-128.00;-1.00;-1.00;105363;1251;1003994;-81
2023/11/23 10:33:38;;;;;;;19.80;11.50;;;;;;;-128.00;-1.00;-1.00;105397;1253;1004023;-80
2023/11/23 10:36:06;;;;;;;16.50;9.60;;;;;;;-128.00;-1.00;-1.00;105326;1251;1058805;-79
2023/11/23 10:38:38;;;;;;;13.90;8.80;;;;;;;-128.00;-1.00;-1.00;105378;1254;1004607;-79
2023/11/23 10:41:08;;;;;;;14.70;9.90;;;;;;;-128.00;-1.00;-1.00;105345;1251;1046214;-79
2023/11/23 10:43:38;;;;;;;16.90;10.40;;;;;;;-128.00;-1.00;-1.00;105390;1251;1061883;-81
2023/11/23 10:46:09;;;;;;;17.20;10.00;;;;;;;-128.00;-1.00;-1.00;105291;1254;1057864;-79
2023/11/23 10:48:36;;;;;;;19.20;10.90;;;;;;;-128.00;-1.00;-1.00;105210;1254;1058757;-80
2023/11/23 10:51:04;;;;;;;23.60;11.60;;;;;;;-128.00;-1.00;-1.00;105367;1254;1003436;-79
2023/11/23 10:53:31;;;;;;;23.40;13.10;;;;;;;-128.00;-1.00;-1.00;105301;1253;1004324;-79
2023/11/23 10:56:16;;;;;;;28.60;15.20;;;;;;;-128.00;-1.00;-1.00;105259;1251;1003629;-79
2023/11/23 10:58:42;;;;;;;21.30;10.30;;;;;;;-128.00;-1.00;-1.00;105368;1252;1059630;-80
2023/11/23 11:01:10;;;;;;;25.00;13.40;;;;;;;-128.00;-1.00;-1.00;105355;1252;1004293;-79
2023/11/23 11:03:38;;;;;;;24.30;14.30;;;;;;;-128.00;-1.00;-1.00;105294;1253;1004704;-79